Time;durP1;ratioP1;P1;durP2;ratioP2;P2;SDS_P1;SDS_P2;PMS_P1;PMS_P2;Temp;Humidity;BMP_temperature;BMP_pressure;BME280_temperature;BME280_humidity;BME280_pressure;Samples;Min_cycle;Max_cycle;Signal;HPM_P1;HPM_P2
2023/01/07 00:02:05;;;;;;;2.80;2.60;;;7.80;99.90;;;;;;4894211;29;21045;-80
2023/01/07 00:04:32;;;;;;;3.43;2.83;;;7.70;99.90;;;;;;4898515;29;20477;-79
2023/01/07 00:06:59;;;;;;;3.13;2.90;;;7.70;99.90;;;;;;4892178;29;20709;-80
2023/01/07 00:09:26;;;;;;;3.23;3.00;;;7.90;99.90;;;;;;4898455;29;20481;-79
2023/01/07 00:11:53;;;;;;;2.80;2.60;;;8.00;99.90;;;;;;4892589;29;20453;-80
2023/01/07 00:14:19;;;;;;;4.90;3.17;;;8.00;99.90;;;;;;4893065;29;20900;-80
2023/01/07 00:16:47;;;;;;;3.50;3.10;;;8.00;99.90;;;;;;4893295;29;20551;-80
2023/01/07 00:19:16;;;;;;;2.70;2.47;;;8.00;99.90;;;;;;4895523;29;20551;-79
2023/01/07 00:21:42;;;;;;;3.10;2.80;;;7.90;99.90;;;;;;4890766;29;20486;-80
2023/01/07 00:24:11;;;;;;;3.80;2.87;;;7.80;99.90;;;;;;4897595;29;20495;-80
2023/01/07 00:26:38;;;;;;;3.67;3.33;;;8.00;99.90;;;;;;4885978;29;20508;-80
2023/01/07 00:29:06;;;;;;;3.30;3.00;;;7.90;99.90;;;;;;4885646;29;20462;-79
2023/01/07 00:31:35;;;;;;;3.00;2.70;;;7.90;99.90;;;;;;4885542;29;20456;-80
2023/01/07 00:34:07;;;;;;;4.00;3.60;;;7.70;99.90;;;;;;4885807;29;20458;-80
2023/01/07 00:36:38;;;;;;;3.40;3.00;;;7.50;99.90;;;;;;4886359;29;20466;-79
2023/01/07 00:39:06;;;;;;;3.00;2.80;;;7.60;99.90;;;;;;4885770;29;20460;-80
2023/01/07 00:41:34;;;;;;;4.97;2.30;;;7.60;99.90;;;;;;4894352;29;20470;-80
2023/01/07 00:44:01;;;;;;;5.10;2.67;;;7.50;99.90;;;;;;4904097;29;20449;-78
2023/01/07 00:46:28;;;;;;;3.10;2.80;;;7.50;99.90;;;;;;4903300;29;20489;-80
2023/01/07 00:48:55;;;;;;;2.63;1.87;;;7.50;99.90;;;;;;4903506;29;20512;-80
2023/01/07 00:51:25;;;;;;;2.70;2.50;;;7.60;99.90;;;;;;4904065;29;20458;-80
2023/01/07 00:53:52;;;;;;;2.53;2.33;;;7.80;99.90;;;;;;4904163;29;20464;-79
2023/01/07 00:56:18;;;;;;;3.37;2.70;;;7.80;99.90;;;;;;4903944;29;20568;-79
2023/01/07 00:58:45;;;;;;;3.80;3.17;;;7.90;99.90;;;;;;4903847;29;20473;-79
2023/01/07 01:01:12;;;;;;;4.07;2.87;;;7.80;99.90;;;;;;4904666;29;20457;-79
2023/01/07 01:03:39;;;;;;;3.50;2.80;;;7.70;99.90;;;;;;4904489;29;20970;-80
2023/01/07 01:06:08;;;;;;;3.00;2.80;;;7.50;99.90;;;;;;4904157;29;20517;-79
2023/01/07 01:08:36;;;;;;;5.83;2.80;;;7.50;99.90;;;;;;4903720;29;20464;-79
2023/01/07 01:11:04;;;;;;;3.00;2.70;;;7.50;99.90;;;;;;4902062;29;20482;-80
2023/01/07 01:13:30;;;;;;;3.73;3.00;;;7.50;99.90;;;;;;4897803;29;20478;-80
2023/01/07 01:15:57;;;;;;;2.80;2.53;;;7.60;99.90;;;;;;4883572;29;21068;-80
2023/01/07 01:18:24;;;;;;;3.20;3.00;;;7.60;99.90;;;;;;4882316;29;21089;-80
2023/01/07 01:20:51;;;;;;;2.60;2.50;;;7.60;99.90;;;;;;4883953;29;20454;-80
2023/01/07 01:23:17;;;;;;;2.80;2.60;;;7.60;99.90;;;;;;4882593;29;20461;-80
2023/01/07 01:25:45;;;;;;;3.40;2.60;;;7.60;99.90;;;;;;4881530;29;21048;-80
2023/01/07 01:28:12;;;;;;;3.13;2.83;;;7.50;99.90;;;;;;4883160;29;20454;-80
2023/01/07 01:30:39;;;;;;;6.60;2.80;;;7.50;99.90;;;;;;4887933;29;20474;-80
2023/01/07 01:33:06;;;;;;;3.30;2.73;;;7.60;99.90;;;;;;4903907;29;20464;-79
2023/01/07 01:35:32;;;;;;;6.13;2.93;;;7.60;99.90;;;;;;4904108;29;20460;-80
2023/01/07 01:38:00;;;;;;;2.90;2.60;;;7.70;99.90;;;;;;4904211;29;20434;-80
2023/01/07 01:40:29;;;;;;;3.10;2.47;;;7.70;99.90;;;;;;4904884;29;20676;-80
2023/01/07 01:42:57;;;;;;;4.87;3.00;;;7.60;99.90;;;;;;4904254;29;20458;-79
2023/01/07 01:45:25;;;;;;;4.03;2.60;;;7.50;99.90;;;;;;4903681;29;20446;-79
2023/01/07 01:47:56;;;;;;;4.73;3.40;;;7.60;99.90;;;;;;4902839;29;20853;-80
2023/01/07 01:50:27;;;;;;;4.43;3.23;;;7.60;99.90;;;;;;4903711;29;20450;-80
2023/01/07 01:52:59;;;;;;;8.80;2.97;;;7.70;99.90;;;;;;4902935;29;20434;-79
2023/01/07 01:55:31;;;;;;;4.20;3.37;;;7.70;99.90;;;;;;4904142;29;20548;-80
2023/01/07 01:58:03;;;;;;;4.70;3.70;;;7.80;99.90;;;;;;4903877;29;20462;-80
2023/01/07 02:00:31;;;;;;;4.47;3.27;;;7.90;99.90;;;;;;4903662;29;20458;-79
2023/01/07 02:02:59;;;;;;;4.80;3.50;;;8.00;99.90;;;;;;4902530;29;20458;-80
2023/01/07 02:05:29;;;;;;;6.73;3.70;;;8.00;99.90;;;;;;4902756;29;20481;-80
2023/01/07 02:07:56;;;;;;;3.93;3.63;;;7.70;99.90;;;;;;4903024;29;20465;-79
2023/01/07 02:10:25;;;;;;;4.00;3.60;;;7.60;99.90;;;;;;4903542;29;20474;-79
2023/01/07 02:13:19;;;;;;;6.27;3.70;;;7.60;99.90;;;;;;4903493;29;20463;-79
2023/01/07 02:15:53;;;;;;;6.53;3.73;;;7.60;99.90;;;;;;4904850;29;20458;-80
2023/01/07 02:18:37;;;;;;;4.90;3.70;;;7.70;99.90;;;;;;4903414;29;20544;-80
2023/01/07 02:21:17;;;;;;;5.33;4.10;;;7.60;99.90;;;;;;4902454;29;20458;-80
2023/01/07 02:24:41;;;;;;;5.13;3.97;;;7.70;99.90;;;;;;4904202;29;20540;-80
2023/01/07 02:27:25;;;;;;;4.37;3.80;;;7.70;99.90;;;;;;4902504;29;20489;-79
2023/01/07 02:30:32;;;;;;;5.93;4.60;;;7.80;99.90;;;;;;4901878;29;20534;-79
2023/01/07 02:33:18;;;;;;;4.70;3.60;;;7.60;99.90;;;;;;4902179;29;20453;-80
2023/01/07 02:36:10;;;;;;;5.23;4.73;;;7.70;99.90;;;;;;4902326;29;20950;-80
2023/01/07 02:38:47;;;;;;;5.33;4.10;;;7.70;99.90;;;;;;4886346;29;20461;-80
2023/01/07 02:41:22;;;;;;;5.27;3.73;;;7.60;99.90;;;;;;4903024;29;20464;-80
2023/01/07 02:43:55;;;;;;;5.37;4.10;;;7.70;99.90;;;;;;4902265;29;20446;-79
2023/01/07 02:46:27;;;;;;;4.70;4.30;;;7.70;99.90;;;;;;4900983;29;20485;-79
2023/01/07 02:48:59;;;;;;;4.40;4.00;;;7.70;99.90;;;;;;4902463;29;20476;-80
2023/01/07 02:51:32;;;;;;;3.90;3.00;;;7.60;99.90;;;;;;4903187;29;20850;-80
2023/01/07 02:53:59;;;;;;;3.60;3.30;;;7.70;99.90;;;;;;4901999;29;20466;-80
2023/01/07 02:56:36;;;;;;;3.80;3.40;;;7.60;99.90;;;;;;4903283;29;20441;-79
2023/01/07 02:59:28;;;;;;;3.77;3.13;;;7.60;99.90;;;;;;4902729;29;20828;-79
2023/01/07 03:02:12;;;;;;;5.63;3.37;;;7.50;99.90;;;;;;4903428;29;20507;-80
2023/01/07 03:05:05;;;;;;;4.80;3.23;;;7.60;99.90;;;;;;4902274;29;20462;-79
2023/01/07 03:07:43;;;;;;;5.37;3.63;;;7.60;99.90;;;;;;4891663;29;21045;-79
2023/01/07 03:10:14;;;;;;;6.67;4.03;;;7.50;99.90;;;;;;4901325;29;20837;-79
2023/01/07 03:12:46;;;;;;;4.90;3.30;;;7.30;99.90;;;;;;4901364;29;20457;-80
2023/01/07 03:15:20;;;;;;;4.33;3.67;;;7.30;99.90;;;;;;4899754;29;20461;-79
2023/01/07 03:17:52;;;;;;;3.60;3.30;;;7.30;99.90;;;;;;4880792;29;20589;-74
2023/01/07 03:20:23;;;;;;;5.13;3.60;;;7.40;99.90;;;;;;4882238;29;20464;-72
2023/01/07 03:22:51;;;;;;;4.83;3.37;;;7.50;99.90;;;;;;4893557;29;20541;-73
2023/01/07 03:25:20;;;;;;;4.30;3.63;;;7.60;99.90;;;;;;4880267;29;20463;-72
2023/01/07 03:27:50;;;;;;;5.77;4.03;;;7.70;99.90;;;;;;4887750;29;20501;-73
2023/01/07 03:30:19;;;;;;;3.47;2.90;;;7.70;99.90;;;;;;4893234;29;20466;-72
2023/01/07 03:32:52;;;;;;;5.60;3.50;;;7.60;99.90;;;;;;4892847;29;20460;-72
2023/01/07 03:35:21;;;;;;;3.37;3.00;;;7.70;99.90;;;;;;4893248;29;21119;-72
2023/01/07 03:37:50;;;;;;;3.27;2.97;;;7.70;99.90;;;;;;4893193;29;20456;-72
2023/01/07 03:40:19;;;;;;;3.17;2.60;;;7.90;99.90;;;;;;4893095;29;20460;-72
2023/01/07 03:42:47;;;;;;;4.53;3.83;;;7.80;99.90;;;;;;4893073;29;20458;-72
2023/01/07 03:45:16;;;;;;;2.73;2.53;;;7.90;99.90;;;;;;4892794;29;20553;-72
2023/01/07 03:47:46;;;;;;;4.47;4.07;;;7.90;99.90;;;;;;4892955;29;20524;-72
2023/01/07 03:50:12;;;;;;;3.90;2.37;;;7.90;99.90;;;;;;4892946;29;20485;-72
2023/01/07 03:52:41;;;;;;;3.50;3.10;;;7.90;99.90;;;;;;4892940;29;20457;-72
2023/01/07 03:55:08;;;;;;;6.33;4.00;;;7.90;99.90;;;;;;4892785;29;20464;-72
2023/01/07 03:57:35;;;;;;;3.60;3.20;;;7.60;99.90;;;;;;4893012;29;20448;-72
2023/01/07 04:00:03;;;;;;;3.10;2.40;;;7.40;99.90;;;;;;4892900;29;20801;-72
2023/01/07 04:02:29;;;;;;;3.40;3.00;;;7.40;99.90;;;;;;4891678;29;20477;-72
2023/01/07 04:04:56;;;;;;;3.07;2.60;;;7.50;99.90;;;;;;4892791;29;20438;-72
2023/01/07 04:07:23;;;;;;;3.03;2.73;;;7.50;99.90;;;;;;4893057;29;20781;-72
2023/01/07 04:09:51;;;;;;;3.40;3.10;;;7.40;99.90;;;;;;4892820;29;20557;-72
2023/01/07 04:12:18;;;;;;;2.93;2.37;;;7.40;99.90;;;;;;4892772;29;20946;-72
2023/01/07 04:14:45;;;;;;;3.77;2.40;;;7.40;99.90;;;;;;4892718;29;20990;-72
2023/01/07 04:17:12;;;;;;;2.40;2.13;;;7.40;99.90;;;;;;4894170;29;20472;-72
2023/01/07 04:19:39;;;;;;;3.43;2.17;;;7.30;99.90;;;;;;4900388;29;20479;-72
2023/01/07 04:22:06;;;;;;;2.33;2.00;;;7.20;99.90;;;;;;4915245;29;20945;-72
2023/01/07 04:24:33;;;;;;;2.90;2.53;;;7.20;99.90;;;;;;4914761;29;20537;-72
2023/01/07 04:27:04;;;;;;;2.93;2.30;;;7.30;99.90;;;;;;4914719;29;20488;-72
2023/01/07 04:29:31;;;;;;;2.43;2.23;;;7.20;99.90;;;;;;4915063;29;20441;-72
2023/01/07 04:31:58;;;;;;;3.60;2.67;;;7.20;99.90;;;;;;4914651;29;20979;-72
2023/01/07 04:34:25;;;;;;;2.13;2.03;;;7.20;99.90;;;;;;4905835;29;20477;-72
2023/01/07 04:36:52;;;;;;;2.13;1.93;;;7.10;99.90;;;;;;4895890;29;20449;-72
2023/01/07 04:39:19;;;;;;;2.90;2.27;;;7.00;99.90;;;;;;4896098;29;20488;-72
2023/01/07 04:41:45;;;;;;;2.30;2.10;;;7.00;99.90;;;;;;4896064;29;20472;-72
2023/01/07 04:44:16;;;;;;;2.90;2.27;;;6.90;99.90;;;;;;4896017;29;20484;-72
2023/01/07 04:46:43;;;;;;;2.23;2.03;;;6.90;99.90;;;;;;4895765;29;20496;-72
2023/01/07 04:49:10;;;;;;;2.77;2.57;;;6.80;99.90;;;;;;4898217;29;20676;-72
2023/01/07 04:51:37;;;;;;;2.33;2.13;;;6.80;99.90;;;;;;4901631;29;21054;-73
2023/01/07 04:54:03;;;;;;;2.60;2.30;;;6.80;99.90;;;;;;4901402;29;20513;-72
2023/01/07 04:56:30;;;;;;;3.30;2.50;;;6.80;99.90;;;;;;4901973;29;20448;-72
2023/01/07 04:58:57;;;;;;;3.10;2.20;;;6.70;99.90;;;;;;4902523;29;20453;-76
2023/01/07 05:01:26;;;;;;;1.70;1.60;;;6.70;99.90;;;;;;4899223;29;20458;-72
2023/01/07 05:03:53;;;;;;;2.00;1.90;;;6.70;99.90;;;;;;4896005;29;20810;-72
2023/01/07 05:06:19;;;;;;;2.17;1.97;;;6.70;99.90;;;;;;4895890;29;20756;-72
2023/01/07 05:08:46;;;;;;;3.60;2.60;;;6.70;99.90;;;;;;4894486;29;20485;-72
2023/01/07 05:11:14;;;;;;;2.20;2.00;;;6.60;99.90;;;;;;4895621;29;20453;-74
2023/01/07 05:13:41;;;;;;;2.53;1.63;;;6.50;99.90;;;;;;4895886;29;20456;-72
2023/01/07 05:16:08;;;;;;;2.23;2.03;;;6.40;99.90;;;;;;4895666;29;20464;-72
2023/01/07 05:18:36;;;;;;;2.77;2.57;;;6.50;99.90;;;;;;4896186;29;20445;-72
2023/01/07 05:21:03;;;;;;;2.77;2.10;;;6.40;99.90;;;;;;4902215;29;21245;-72
2023/01/07 05:23:29;;;;;;;2.17;1.90;;;6.30;99.90;;;;;;4901398;29;20470;-72
2023/01/07 05:25:56;;;;;;;2.90;2.20;;;6.30;99.90;;;;;;4902510;29;20541;-73
2023/01/07 05:28:23;;;;;;;2.13;2.03;;;6.20;99.90;;;;;;4902895;29;20837;-72
2023/01/07 05:30:50;;;;;;;3.80;3.50;;;6.10;99.90;;;;;;4899146;29;20461;-72
2023/01/07 05:33:16;;;;;;;3.50;3.13;;;6.10;99.90;;;;;;4894930;29;20454;-72
2023/01/07 05:35:47;;;;;;;2.03;1.80;;;6.00;99.90;;;;;;4895324;29;20438;-72
2023/01/07 05:38:14;;;;;;;3.20;2.00;;;6.00;99.90;;;;;;4894925;29;20494;-72
2023/01/07 05:40:41;;;;;;;2.83;2.23;;;6.00;99.90;;;;;;4893745;29;20480;-72
2023/01/07 05:43:08;;;;;;;2.70;2.07;;;6.10;99.90;;;;;;4895172;29;20654;-72
2023/01/07 05:45:35;;;;;;;2.20;1.97;;;6.00;99.90;;;;;;4894752;29;20963;-72
2023/01/07 05:48:01;;;;;;;2.10;2.00;;;5.90;99.90;;;;;;4894271;29;20503;-72
2023/01/07 05:50:28;;;;;;;2.40;1.70;;;5.90;99.90;;;;;;4894953;29;20442;-73
2023/01/07 05:52:56;;;;;;;2.40;1.90;;;5.80;99.90;;;;;;4894649;29;21032;-71
2023/01/07 05:55:23;;;;;;;2.40;1.50;;;5.70;99.90;;;;;;4893391;29;20965;-72
2023/01/07 05:57:50;;;;;;;4.00;1.90;;;5.70;99.90;;;;;;4894870;29;20450;-72
2023/01/07 06:00:17;;;;;;;1.97;1.77;;;5.60;99.90;;;;;;4894542;29;20726;-73
2023/01/07 06:02:44;;;;;;;2.40;1.53;;;5.50;99.90;;;;;;4894581;29;21025;-73
2023/01/07 06:05:11;;;;;;;2.07;1.97;;;5.50;99.90;;;;;;4894556;29;20826;-73
2023/01/07 06:07:38;;;;;;;2.13;1.97;;;5.40;99.90;;;;;;4894650;29;21009;-73
2023/01/07 06:10:07;;;;;;;2.50;1.77;;;5.40;99.90;;;;;;4892562;29;20493;-73
2023/01/07 06:12:34;;;;;;;2.60;1.90;;;5.40;99.90;;;;;;4899176;29;20463;-73
2023/01/07 06:15:00;;;;;;;2.53;1.80;;;5.30;99.90;;;;;;4895888;29;20480;-73
2023/01/07 06:17:27;;;;;;;6.00;2.37;;;5.40;99.90;;;;;;4894510;29;20453;-73
2023/01/07 06:19:54;;;;;;;2.60;2.03;;;5.30;99.90;;;;;;4894301;29;20668;-73
2023/01/07 06:22:21;;;;;;;1.80;1.70;;;5.30;99.90;;;;;;4894710;29;20673;-75
2023/01/07 06:24:47;;;;;;;2.33;2.10;;;5.30;99.90;;;;;;4894096;29;21039;-73
2023/01/07 06:27:16;;;;;;;2.50;2.27;;;5.20;99.90;;;;;;4893536;29;20485;-73
2023/01/07 06:29:42;;;;;;;4.33;2.20;;;5.20;99.90;;;;;;4892891;29;20936;-74
2023/01/07 06:32:10;;;;;;;2.60;2.23;;;5.20;99.90;;;;;;4882662;29;20461;-73
2023/01/07 06:34:36;;;;;;;3.23;2.23;;;5.10;99.90;;;;;;4883603;29;20444;-74
2023/01/07 06:37:03;;;;;;;2.47;2.27;;;5.00;99.90;;;;;;4884418;29;20545;-74
2023/01/07 06:39:30;;;;;;;4.20;2.23;;;5.00;99.90;;;;;;4882290;29;20462;-73
2023/01/07 06:41:57;;;;;;;3.17;2.37;;;5.00;99.90;;;;;;4883199;29;20989;-74
2023/01/07 06:44:25;;;;;;;3.60;2.67;;;5.10;99.90;;;;;;4884306;29;20874;-77
2023/01/07 06:46:52;;;;;;;4.30;2.50;;;5.30;99.90;;;;;;4882555;29;20759;-75
2023/01/07 06:49:19;;;;;;;2.80;2.57;;;5.20;99.90;;;;;;4885889;29;20481;-73
2023/01/07 06:51:45;;;;;;;3.00;2.70;;;5.30;99.90;;;;;;4893872;29;20449;-73
2023/01/07 06:54:12;;;;;;;5.40;3.00;;;5.20;99.90;;;;;;4894118;29;20446;-74
2023/01/07 06:56:39;;;;;;;5.87;2.60;;;5.20;99.90;;;;;;4893860;29;20805;-76
2023/01/07 06:59:06;;;;;;;2.70;2.50;;;5.00;99.90;;;;;;4893663;29;20437;-73
2023/01/07 07:01:34;;;;;;;4.37;2.87;;;4.90;99.90;;;;;;4893657;29;20485;-72
2023/01/07 07:04:00;;;;;;;2.87;2.67;;;4.90;99.90;;;;;;4891654;29;20728;-78
2023/01/07 07:06:27;;;;;;;2.20;2.00;;;5.00;99.90;;;;;;4893512;29;20461;-78
2023/01/07 07:08:54;;;;;;;3.20;2.90;;;5.00;99.90;;;;;;4893283;29;20494;-75
2023/01/07 07:11:21;;;;;;;3.00;2.70;;;5.00;99.90;;;;;;4893501;29;20461;-74
2023/01/07 07:13:47;;;;;;;2.80;2.50;;;4.90;99.90;;;;;;4893077;29;20444;-77
2023/01/07 07:16:14;;;;;;;3.17;2.87;;;4.90;99.90;;;;;;4893417;29;20469;-73
2023/01/07 07:18:42;;;;;;;3.47;2.83;;;4.70;99.90;;;;;;4893426;29;21207;-73
2023/01/07 07:21:09;;;;;;;2.63;2.43;;;4.70;99.90;;;;;;4892354;29;20504;-73
2023/01/07 07:23:36;;;;;;;2.97;2.63;;;4.60;99.90;;;;;;4893491;29;20468;-71
2023/01/07 07:26:03;;;;;;;4.80;2.80;;;4.70;99.90;;;;;;4891295;29;20477;-71
2023/01/07 07:28:29;;;;;;;3.63;2.37;;;4.60;99.90;;;;;;4886132;29;20489;-72
2023/01/07 07:30:57;;;;;;;3.57;2.57;;;4.60;99.90;;;;;;4889142;29;20460;-73
2023/01/07 07:33:24;;;;;;;4.43;3.00;;;4.50;99.90;;;;;;4884417;29;20955;-72
2023/01/07 07:35:53;;;;;;;2.63;2.40;;;4.50;99.90;;;;;;4885948;29;20446;-76
2023/01/07 07:38:20;;;;;;;2.30;2.10;;;4.50;99.90;;;;;;4887763;29;20697;-75
2023/01/07 07:40:47;;;;;;;3.60;2.50;;;4.60;99.90;;;;;;4884635;29;20446;-77
2023/01/07 07:43:14;;;;;;;2.27;2.07;;;4.60;99.90;;;;;;4883993;29;20457;-77
2023/01/07 07:45:41;;;;;;;2.70;2.20;;;4.70;99.90;;;;;;4881605;29;20443;-82
2023/01/07 07:48:09;;;;;;;3.30;3.00;;;4.10;99.90;;;;;;4882087;29;20576;-75
2023/01/07 07:50:37;;;;;;;3.60;3.30;;;4.50;99.90;;;;;;4884371;29;20470;-74
2023/01/07 07:53:08;;;;;;;5.60;3.27;;;4.30;99.90;;;;;;4887016;29;20480;-74
2023/01/07 07:55:36;;;;;;;3.73;3.10;;;4.30;99.90;;;;;;4886563;29;20834;-73
2023/01/07 07:58:03;;;;;;;4.17;2.77;;;4.30;99.90;;;;;;4887648;29;20453;-73
2023/01/07 08:00:30;;;;;;;3.23;2.93;;;4.30;99.90;;;;;;4896368;29;20460;-71
2023/01/07 08:02:57;;;;;;;3.93;3.37;;;4.40;99.90;;;;;;4893529;29;20501;-73
2023/01/07 08:05:24;;;;;;;3.10;2.53;;;4.40;99.90;;;;;;4888273;29;20464;-72
2023/01/07 08:07:52;;;;;;;4.70;2.90;;;4.40;99.90;;;;;;4885211;29;20489;-71
2023/01/07 08:10:21;;;;;;;5.00;3.30;;;4.60;99.90;;;;;;4886861;29;20473;-72
2023/01/07 08:12:48;;;;;;;3.70;3.30;;;4.60;99.90;;;;;;4884121;29;20793;-73
2023/01/07 08:15:15;;;;;;;3.40;3.03;;;4.70;99.90;;;;;;4894173;29;20548;-72
2023/01/07 08:17:42;;;;;;;3.73;3.40;;;4.90;99.90;;;;;;4896137;29;20953;-72
2023/01/07 08:20:10;;;;;;;3.27;2.97;;;4.90;99.90;;;;;;4890089;29;20467;-71
2023/01/07 08:22:37;;;;;;;4.80;3.97;;;4.90;99.90;;;;;;4884273;29;20458;-73
2023/01/07 08:25:04;;;;;;;4.93;3.57;;;4.90;99.90;;;;;;4886972;29;20925;-73
2023/01/07 08:27:32;;;;;;;4.10;3.43;;;5.10;99.90;;;;;;4885180;29;20478;-72
2023/01/07 08:29:58;;;;;;;4.33;3.30;;;5.10;99.90;;;;;;4886917;29;20464;-72
2023/01/07 08:32:25;;;;;;;4.07;3.17;;;5.10;99.90;;;;;;4881296;29;20456;-71
2023/01/07 08:34:52;;;;;;;3.97;3.10;;;5.10;99.90;;;;;;4892820;29;20458;-71
2023/01/07 08:37:19;;;;;;;3.87;3.57;;;5.10;99.90;;;;;;4894300;29;20529;-71
2023/01/07 08:39:46;;;;;;;8.07;3.73;;;5.20;99.90;;;;;;4881390;29;20474;-71
2023/01/07 08:42:12;;;;;;;4.47;3.03;;;5.10;99.90;;;;;;4880290;29;20478;-72
2023/01/07 08:44:40;;;;;;;4.50;3.73;;;5.20;99.90;;;;;;4895631;29;20465;-78
2023/01/07 08:47:07;;;;;;;2.73;2.53;;;5.20;99.90;;;;;;4888201;29;20459;-73
2023/01/07 08:49:34;;;;;;;3.57;3.20;;;5.30;99.90;;;;;;4876807;29;20512;-75
2023/01/07 08:52:01;;;;;;;4.33;2.80;;;5.30;99.90;;;;;;4876610;29;20458;-73
2023/01/07 08:54:28;;;;;;;3.53;3.20;;;5.30;99.90;;;;;;4877171;29;20805;-72
2023/01/07 08:56:54;;;;;;;3.87;3.40;;;5.30;99.90;;;;;;4876763;29;20477;-73
2023/01/07 08:59:21;;;;;;;5.87;3.27;;;5.40;99.90;;;;;;4884151;29;20801;-73
2023/01/07 09:01:49;;;;;;;3.03;2.80;;;5.50;99.90;;;;;;4895292;29;20829;-72
2023/01/07 09:04:16;;;;;;;2.87;2.67;;;5.50;99.90;;;;;;4892964;29;20845;-70
2023/01/07 09:06:43;;;;;;;3.30;2.90;;;5.60;99.90;;;;;;4888662;29;20932;-71
2023/01/07 09:09:10;;;;;;;3.00;2.70;;;5.60;99.90;;;;;;4885888;29;20584;-70
2023/01/07 09:11:37;;;;;;;2.43;2.20;;;5.70;99.90;;;;;;4887854;29;20473;-71
2023/01/07 09:14:04;;;;;;;3.87;2.93;;;5.70;99.90;;;;;;4883938;29;20438;-72
2023/01/07 09:16:30;;;;;;;2.90;2.40;;;5.70;99.90;;;;;;4885320;29;20465;-71
2023/01/07 09:18:59;;;;;;;4.47;2.50;;;5.80;99.90;;;;;;4887280;29;21160;-73
2023/01/07 09:21:25;;;;;;;5.53;3.17;;;5.80;99.90;;;;;;4882203;29;20466;-80
2023/01/07 09:23:52;;;;;;;3.30;3.00;;;5.80;99.90;;;;;;4885050;29;20552;-74
2023/01/07 09:26:19;;;;;;;2.87;2.57;;;5.80;99.90;;;;;;4887238;29;20462;-78
2023/01/07 09:28:46;;;;;;;4.13;3.00;;;5.90;99.90;;;;;;4889551;29;20577;-87
2023/01/07 09:31:13;;;;;;;3.33;3.03;;;6.00;99.90;;;;;;4912691;29;20973;-94
2023/01/07 09:33:40;;;;;;;4.47;2.83;;;6.10;99.90;;;;;;4918335;29;20481;-93
2023/01/07 09:36:08;;;;;;;5.37;3.80;;;6.10;99.90;;;;;;4914519;29;20541;-93
2023/01/07 09:41:22;;;;;;;4.43;3.20;;;6.10;99.90;;;;;;5936136;23;20414;-80
2023/01/07 09:43:54;;;;;;;3.27;2.60;;;6.10;99.90;;;;;;4926618;29;20460;-79
2023/01/07 09:46:22;;;;;;;3.27;2.97;;;6.30;99.90;;;;;;4923856;29;20468;-89
2023/01/07 09:48:55;;;;;;;2.70;2.47;;;6.40;99.90;;;;;;4920659;29;20479;-78
2023/01/07 09:51:28;;;;;;;3.60;2.90;;;6.40;99.90;;;;;;4930196;29;21017;-78
2023/01/07 09:53:59;;;;;;;2.73;2.50;;;6.40;99.90;;;;;;4920876;29;20508;-78
2023/01/07 09:56:28;;;;;;;4.53;2.87;;;6.40;99.90;;;;;;4926634;29;20507;-77
2023/01/07 09:58:56;;;;;;;4.07;3.57;;;6.40;99.90;;;;;;4914409;29;20470;-77
2023/01/07 10:01:28;;;;;;;5.60;3.50;;;6.50;99.90;;;;;;4921615;29;20441;-80
2023/01/07 10:04:09;;;;;;;4.73;3.57;;;6.60;99.90;;;;;;4932087;29;20500;-80
2023/01/07 10:06:45;;;;;;;2.77;2.57;;;6.70;99.90;;;;;;4920665;29;20437;-80
2023/01/07 10:09:27;;;;;;;3.40;3.10;;;6.80;99.90;;;;;;4912307;29;20584;-78
2023/01/07 10:12:01;;;;;;;3.50;3.20;;;6.80;99.90;;;;;;4904900;29;20461;-81
2023/01/07 10:14:50;;;;;;;2.80;2.60;;;7.00;99.90;;;;;;4906212;29;20889;-79
2023/01/07 10:17:28;;;;;;;2.20;2.10;;;7.10;99.90;;;;;;4896828;29;20969;-79
2023/01/07 10:20:01;;;;;;;3.60;3.30;;;7.20;99.90;;;;;;4900939;29;20462;-77
2023/01/07 10:22:35;;;;;;;2.47;2.27;;;7.20;99.90;;;;;;4904141;29;20556;-79
2023/01/07 10:25:04;;;;;;;3.10;2.70;;;7.30;99.90;;;;;;4914724;29;20492;-81
2023/01/07 10:27:37;;;;;;;3.90;3.20;;;7.10;99.90;;;;;;4931341;29;20500;-83
2023/01/07 10:35:19;;;;;;;3.10;2.30;;;7.50;99.90;;;;;;5200184;23;20524;-80
2023/01/07 10:37:47;;;;;;;6.63;2.87;;;7.70;99.90;;;;;;4893821;29;20454;-69
2023/01/07 10:40:26;;;;;;;3.87;3.10;;;7.70;99.90;;;;;;4892552;29;20484;-69
2023/01/07 10:43:00;;;;;;;3.00;2.57;;;8.00;99.90;;;;;;4894089;29;20468;-71
2023/01/07 10:45:45;;;;;;;3.93;2.80;;;8.20;99.90;;;;;;4893705;29;20549;-69
2023/01/07 10:48:27;;;;;;;3.73;3.43;;;8.20;99.90;;;;;;4874910;29;20793;-69
2023/01/07 10:51:09;;;;;;;2.73;2.40;;;8.40;99.90;;;;;;4874928;29;20461;-70
2023/01/07 10:53:49;;;;;;;4.13;3.27;;;8.40;99.90;;;;;;4874671;29;20792;-69
2023/01/07 10:56:26;;;;;;;3.27;2.97;;;8.40;99.90;;;;;;4874747;29;20820;-69
2023/01/07 10:58:59;;;;;;;3.30;3.00;;;8.40;99.90;;;;;;4880583;29;20453;-68
2023/01/07 11:01:40;;;;;;;2.90;2.67;;;8.50;99.90;;;;;;4882454;29;20454;-71
2023/01/07 11:04:13;;;;;;;3.23;2.57;;;8.50;99.90;;;;;;4889648;29;20458;-70
2023/01/07 11:06:46;;;;;;;2.83;2.53;;;8.70;99.90;;;;;;4887018;29;20462;-70
2023/01/07 11:09:21;;;;;;;2.97;2.20;;;8.80;99.90;;;;;;4883510;29;20517;-70
2023/01/07 11:11:51;;;;;;;2.93;2.73;;;8.80;99.90;;;;;;4870942;29;20954;-70
2023/01/07 11:14:22;;;;;;;2.30;2.10;;;8.90;99.90;;;;;;4871548;29;20462;-72
2023/01/07 11:16:53;;;;;;;3.50;2.50;;;9.00;99.90;;;;;;4871214;29;20453;-70
2023/01/07 11:19:22;;;;;;;2.33;2.13;;;9.10;99.90;;;;;;4870837;29;20522;-70
2023/01/07 11:21:50;;;;;;;2.97;2.70;;;9.10;99.90;;;;;;4871752;29;20459;-70
2023/01/07 11:24:34;;;;;;;7.80;3.27;;;9.10;99.90;;;;;;4871651;29;21047;-70
2023/01/07 11:27:04;;;;;;;2.27;2.07;;;9.10;99.90;;;;;;4875237;29;20690;-71
2023/01/07 11:29:37;;;;;;;3.40;2.37;;;9.20;99.90;;;;;;4877877;29;21325;-70
2023/01/07 11:32:06;;;;;;;4.47;2.53;;;9.30;99.90;;;;;;4878982;29;20469;-72
2023/01/07 11:34:35;;;;;;;2.43;2.23;;;9.30;99.90;;;;;;4878332;29;20492;-70
2023/01/07 11:37:03;;;;;;;6.83;2.07;;;9.50;99.90;;;;;;4879472;29;20466;-71
2023/01/07 11:39:34;;;;;;;1.93;1.73;;;9.70;99.90;;;;;;4878848;29;20469;-70
2023/01/07 11:42:37;;;;;;;3.23;2.30;;;10.00;99.90;;;;;;4879351;29;20758;-69
2023/01/07 11:45:06;;;;;;;2.30;2.00;;;10.70;99.90;;;;;;4879544;29;20470;-70
2023/01/07 11:47:34;;;;;;;4.10;2.20;;;11.80;99.90;;;;;;4881200;29;20458;-70
2023/01/07 11:50:01;;;;;;;3.40;2.90;;;12.60;99.90;;;;;;4881145;29;20506;-70
2023/01/07 11:52:27;;;;;;;2.57;2.37;;;13.00;99.90;;;;;;4880602;29;20493;-72
2023/01/07 11:54:56;;;;;;;2.93;2.57;;;13.20;99.90;;;;;;4880118;29;20453;-70
2023/01/07 11:57:25;;;;;;;3.13;2.63;;;13.10;99.90;;;;;;4878411;29;20478;-70
2023/01/07 12:00:11;;;;;;;5.97;5.40;;;13.00;99.90;;;;;;4868680;29;20558;-79
2023/01/07 12:02:38;;;;;;;2.33;2.13;;;12.90;99.90;;;;;;4884819;29;20554;-78
2023/01/07 12:05:19;;;;;;;3.53;2.40;;;12.50;99.90;;;;;;4886923;29;20462;-77
2023/01/07 12:07:47;;;;;;;2.53;2.33;;;12.40;99.90;;;;;;4887517;29;20473;-78
2023/01/07 12:10:30;;;;;;;4.90;3.33;;;12.40;99.90;;;;;;4887826;29;20716;-79
2023/01/07 12:12:58;;;;;;;3.10;2.67;;;12.50;99.90;;;;;;4885487;29;20497;-79
2023/01/07 12:15:30;;;;;;;2.80;1.93;;;12.70;99.90;;;;;;4872783;29;20494;-79
2023/01/07 12:18:16;;;;;;;2.40;2.13;;;12.90;99.90;;;;;;4886169;29;20998;-79
2023/01/07 12:21:15;;;;;;;2.90;1.97;;;12.70;99.90;;;;;;4887083;29;20566;-79
2023/01/07 12:23:52;;;;;;;4.13;2.03;;;13.50;99.90;;;;;;4886354;29;20454;-79
2023/01/07 12:26:24;;;;;;;2.63;1.90;;;14.40;99.90;;;;;;4888784;29;20438;-79
2023/01/07 12:29:06;;;;;;;3.60;2.30;;;13.90;99.90;;;;;;4886639;29;20453;-79
2023/01/07 12:31:43;;;;;;;3.23;1.73;;;14.20;99.90;;;;;;4883686;29;20483;-79
2023/01/07 12:34:22;;;;;;;2.03;1.80;;;14.30;99.90;;;;;;4885428;29;20496;-79
2023/01/07 12:36:54;;;;;;;2.70;2.30;;;13.50;99.90;;;;;;4892064;29;20456;-81
2023/01/07 12:39:26;;;;;;;3.07;2.40;;;14.10;99.90;;;;;;4895349;29;20739;-80
2023/01/07 12:42:18;;;;;;;4.60;2.87;;;14.10;99.90;;;;;;4901234;29;20431;-81
2023/01/07 12:44:49;;;;;;;2.37;2.17;;;13.90;99.90;;;;;;4895710;29;20467;-81
2023/01/07 12:47:19;;;;;;;2.83;2.10;;;12.90;99.90;;;;;;4900972;29;20522;-81
2023/01/07 12:49:50;;;;;;;2.00;1.90;;;11.90;99.90;;;;;;4898789;29;20558;-80
2023/01/07 12:52:22;;;;;;;2.53;2.33;;;11.00;99.90;;;;;;4896537;29;20462;-80
2023/01/07 12:54:55;;;;;;;3.97;2.17;;;11.90;99.90;;;;;;4896997;29;20451;-81
2023/01/07 12:57:28;;;;;;;1.90;1.60;;;11.00;99.90;;;;;;4895640;29;20537;-81
2023/01/07 13:00:01;;;;;;;1.70;1.60;;;10.90;99.90;;;;;;4897598;29;20462;-81
2023/01/07 13:02:33;;;;;;;2.33;1.90;;;11.20;99.90;;;;;;4898484;29;20541;-80
2023/01/07 13:05:10;;;;;;;2.90;2.30;;;11.20;99.90;;;;;;4901644;29;20554;-80
2023/01/07 13:07:45;;;;;;;2.10;1.83;;;11.40;99.90;;;;;;4903005;29;20466;-80
2023/01/07 13:10:17;;;;;;;2.80;2.37;;;11.60;99.90;;;;;;4901002;29;20478;-81
2023/01/07 13:12:48;;;;;;;2.67;1.97;;;11.30;99.90;;;;;;4901480;29;20511;-81
2023/01/07 13:15:25;;;;;;;3.47;1.70;;;11.50;99.90;;;;;;4900784;29;20460;-81
2023/01/07 13:17:54;;;;;;;3.13;1.83;;;11.30;99.90;;;;;;4911221;29;20440;-81
2023/01/07 13:21:01;;;;;;;2.07;1.87;;;12.50;99.90;;;;;;4918039;29;20469;-80